sensor_id;sensor_type;location;lat;lon;timestamp;P1;durP1;ratioP1;P2;durP2;ratioP2
73779;SDS011;62093;37.614;15.072;2024-01-30T00:02:13;9.90;;;5.82;;
73779;SDS011;62093;37.614;15.072;2024-01-30T00:04:38;9.20;;;5.03;;
73779;SDS011;62093;37.614;15.072;2024-01-30T00:07:04;10.60;;;6.43;;
73779;SDS011;62093;37.614;15.072;2024-01-30T00:09:30;9.15;;;5.32;;
73779;SDS011;62093;37.614;15.072;2024-01-30T00:11:56;9.27;;;5.07;;
73779;SDS011;62093;37.614;15.072;2024-01-30T00:14:22;8.90;;;5.17;;
73779;SDS011;62093;37.614;15.072;2024-01-30T00:16:48;9.00;;;4.97;;
73779;SDS011;62093;37.614;15.072;2024-01-30T00:19:16;8.40;;;4.70;;
73779;SDS011;62093;37.614;15.072;2024-01-30T00:21:42;9.07;;;4.75;;
73779;SDS011;62093;37.614;15.072;2024-01-30T00:24:08;8.85;;;5.13;;
73779;SDS011;62093;37.614;15.072;2024-01-30T00:26:34;8.27;;;4.63;;
73779;SDS011;62093;37.614;15.072;2024-01-30T00:29:00;8.15;;;4.90;;
73779;SDS011;62093;37.614;15.072;2024-01-30T00:31:26;8.98;;;5.13;;
73779;SDS011;62093;37.614;15.072;2024-01-30T00:33:52;10.02;;;5.15;;
73779;SDS011;62093;37.614;15.072;2024-01-30T00:36:18;8.13;;;4.73;;
73779;SDS011;62093;37.614;15.072;2024-01-30T00:38:44;8.30;;;4.70;;
73779;SDS011;62093;37.614;15.072;2024-01-30T00:41:10;8.02;;;4.57;;
73779;SDS011;62093;37.614;15.072;2024-01-30T00:43:36;7.57;;;4.57;;
73779;SDS011;62093;37.614;15.072;2024-01-30T00:46:03;8.33;;;4.60;;
73779;SDS011;62093;37.614;15.072;2024-01-30T00:48:29;7.75;;;4.63;;
73779;SDS011;62093;37.614;15.072;2024-01-30T00:50:55;7.93;;;4.43;;
73779;SDS011;62093;37.614;15.072;2024-01-30T00:53:21;8.40;;;4.55;;
73779;SDS011;62093;37.614;15.072;2024-01-30T00:55:47;7.68;;;4.45;;
73779;SDS011;62093;37.614;15.072;2024-01-30T00:58:13;7.33;;;4.47;;
73779;SDS011;62093;37.614;15.072;2024-01-30T01:00:39;7.30;;;4.95;;
73779;SDS011;62093;37.614;15.072;2024-01-30T01:03:05;7.40;;;4.72;;
73779;SDS011;62093;37.614;15.072;2024-01-30T01:05:31;7.68;;;4.43;;
73779;SDS011;62093;37.614;15.072;2024-01-30T01:07:57;7.00;;;4.30;;
73779;SDS011;62093;37.614;15.072;2024-01-30T01:10:23;8.43;;;4.40;;
73779;SDS011;62093;37.614;15.072;2024-01-30T01:12:49;7.28;;;4.28;;
73779;SDS011;62093;37.614;15.072;2024-01-30T01:15:15;6.78;;;4.07;;
73779;SDS011;62093;37.614;15.072;2024-01-30T01:17:41;7.03;;;3.97;;
73779;SDS011;62093;37.614;15.072;2024-01-30T01:20:07;7.85;;;4.10;;
73779;SDS011;62093;37.614;15.072;2024-01-30T01:22:34;7.50;;;4.15;;
73779;SDS011;62093;37.614;15.072;2024-01-30T01:25:00;7.68;;;4.45;;
73779;SDS011;62093;37.614;15.072;2024-01-30T01:27:26;7.50;;;4.30;;
73779;SDS011;62093;37.614;15.072;2024-01-30T01:29:53;7.57;;;4.30;;
73779;SDS011;62093;37.614;15.072;2024-01-30T01:32:19;8.20;;;4.00;;
73779;SDS011;62093;37.614;15.072;2024-01-30T01:34:45;7.20;;;4.10;;
73779;SDS011;62093;37.614;15.072;2024-01-30T01:37:11;7.93;;;4.18;;
73779;SDS011;62093;37.614;15.072;2024-01-30T01:39:37;6.40;;;3.17;;
73779;SDS011;62093;37.614;15.072;2024-01-30T01:42:03;7.57;;;3.88;;
73779;SDS011;62093;37.614;15.072;2024-01-30T01:44:29;6.70;;;4.03;;
73779;SDS011;62093;37.614;15.072;2024-01-30T01:46:57;7.38;;;4.55;;
73779;SDS011;62093;37.614;15.072;2024-01-30T01:49:27;7.40;;;3.90;;
73779;SDS011;62093;37.614;15.072;2024-01-30T01:51:55;7.47;;;3.92;;
73779;SDS011;62093;37.614;15.072;2024-01-30T01:54:22;7.65;;;4.30;;
73779;SDS011;62093;37.614;15.072;2024-01-30T01:56:49;7.38;;;4.10;;
73779;SDS011;62093;37.614;15.072;2024-01-30T01:59:16;6.45;;;3.72;;
73779;SDS011;62093;37.614;15.072;2024-01-30T02:01:43;7.17;;;4.00;;
73779;SDS011;62093;37.614;15.072;2024-01-30T02:04:11;6.70;;;3.80;;
73779;SDS011;62093;37.614;15.072;2024-01-30T02:06:37;6.80;;;3.90;;
73779;SDS011;62093;37.614;15.072;2024-01-30T02:09:03;7.10;;;3.83;;
73779;SDS011;62093;37.614;15.072;2024-01-30T02:11:30;6.95;;;4.22;;
73779;SDS011;62093;37.614;15.072;2024-01-30T02:13:57;6.90;;;4.03;;
73779;SDS011;62093;37.614;15.072;2024-01-30T02:16:27;6.50;;;3.60;;
73779;SDS011;62093;37.614;15.072;2024-01-30T02:18:53;6.13;;;3.50;;
73779;SDS011;62093;37.614;15.072;2024-01-30T02:21:20;6.97;;;3.88;;
73779;SDS011;62093;37.614;15.072;2024-01-30T02:23:48;6.85;;;3.90;;
73779;SDS011;62093;37.614;15.072;2024-01-30T02:26:16;6.77;;;3.67;;
73779;SDS011;62093;37.614;15.072;2024-01-30T02:28:42;6.60;;;3.78;;
73779;SDS011;62093;37.614;15.072;2024-01-30T02:31:08;7.10;;;3.60;;
73779;SDS011;62093;37.614;15.072;2024-01-30T02:33:33;6.60;;;3.83;;
73779;SDS011;62093;37.614;15.072;2024-01-30T02:36:00;6.88;;;4.00;;
73779;SDS011;62093;37.614;15.072;2024-01-30T02:38:26;6.72;;;3.60;;
73779;SDS011;62093;37.614;15.072;2024-01-30T02:40:52;7.22;;;3.80;;
73779;SDS011;62093;37.614;15.072;2024-01-30T02:43:18;6.78;;;3.55;;
73779;SDS011;62093;37.614;15.072;2024-01-30T02:45:44;6.67;;;3.80;;
73779;SDS011;62093;37.614;15.072;2024-01-30T02:48:11;6.85;;;3.90;;
73779;SDS011;62093;37.614;15.072;2024-01-30T02:50:36;7.00;;;3.55;;
73779;SDS011;62093;37.614;15.072;2024-01-30T02:53:02;6.05;;;3.72;;
73779;SDS011;62093;37.614;15.072;2024-01-30T02:55:29;7.53;;;3.93;;
73779;SDS011;62093;37.614;15.072;2024-01-30T02:57:55;7.47;;;3.95;;
73779;SDS011;62093;37.614;15.072;2024-01-30T03:00:21;5.80;;;3.40;;
73779;SDS011;62093;37.614;15.072;2024-01-30T03:02:47;6.38;;;3.55;;
73779;SDS011;62093;37.614;15.072;2024-01-30T03:05:13;6.53;;;3.50;;
73779;SDS011;62093;37.614;15.072;2024-01-30T03:07:39;6.30;;;3.25;;
73779;SDS011;62093;37.614;15.072;2024-01-30T03:10:05;7.30;;;4.05;;
73779;SDS011;62093;37.614;15.072;2024-01-30T03:12:34;6.80;;;3.67;;
73779;SDS011;62093;37.614;15.072;2024-01-30T03:15:00;6.90;;;3.67;;
73779;SDS011;62093;37.614;15.072;2024-01-30T03:17:26;6.15;;;3.65;;
73779;SDS011;62093;37.614;15.072;2024-01-30T03:19:52;6.72;;;4.13;;
73779;SDS011;62093;37.614;15.072;2024-01-30T03:22:18;6.45;;;3.40;;
73779;SDS011;62093;37.614;15.072;2024-01-30T03:24:44;6.80;;;3.67;;
73779;SDS011;62093;37.614;15.072;2024-01-30T03:27:09;6.35;;;3.45;;
73779;SDS011;62093;37.614;15.072;2024-01-30T03:29:35;6.13;;;2.92;;
73779;SDS011;62093;37.614;15.072;2024-01-30T03:32:01;6.10;;;3.53;;
73779;SDS011;62093;37.614;15.072;2024-01-30T03:34:29;7.03;;;3.70;;
73779;SDS011;62093;37.614;15.072;2024-01-30T03:36:55;6.95;;;3.75;;
73779;SDS011;62093;37.614;15.072;2024-01-30T03:39:21;6.05;;;3.45;;
73779;SDS011;62093;37.614;15.072;2024-01-30T03:41:48;5.85;;;3.70;;
73779;SDS011;62093;37.614;15.072;2024-01-30T03:44:14;6.53;;;3.60;;
73779;SDS011;62093;37.614;15.072;2024-01-30T03:46:39;5.43;;;3.28;;
73779;SDS011;62093;37.614;15.072;2024-01-30T03:49:05;6.20;;;3.55;;
73779;SDS011;62093;37.614;15.072;2024-01-30T03:51:31;6.60;;;3.70;;
73779;SDS011;62093;37.614;15.072;2024-01-30T03:53:57;6.83;;;3.40;;
73779;SDS011;62093;37.614;15.072;2024-01-30T03:56:23;5.53;;;3.00;;
73779;SDS011;62093;37.614;15.072;2024-01-30T03:58:51;7.05;;;3.72;;
73779;SDS011;62093;37.614;15.072;2024-01-30T04:01:17;6.25;;;3.35;;
73779;SDS011;62093;37.614;15.072;2024-01-30T04:03:43;5.90;;;3.20;;
73779;SDS011;62093;37.614;15.072;2024-01-30T04:06:10;6.80;;;3.58;;
73779;SDS011;62093;37.614;15.072;2024-01-30T04:08:36;5.97;;;3.60;;
73779;SDS011;62093;37.614;15.072;2024-01-30T04:11:05;5.68;;;3.10;;
73779;SDS011;62093;37.614;15.072;2024-01-30T04:13:32;5.85;;;3.20;;
73779;SDS011;62093;37.614;15.072;2024-01-30T04:15:59;5.83;;;3.47;;
73779;SDS011;62093;37.614;15.072;2024-01-30T04:18:27;5.65;;;3.08;;
73779;SDS011;62093;37.614;15.072;2024-01-30T04:20:53;5.75;;;3.20;;
73779;SDS011;62093;37.614;15.072;2024-01-30T04:23:19;6.53;;;3.25;;
73779;SDS011;62093;37.614;15.072;2024-01-30T04:25:45;5.87;;;3.30;;
73779;SDS011;62093;37.614;15.072;2024-01-30T04:28:11;5.90;;;3.40;;
73779;SDS011;62093;37.614;15.072;2024-01-30T04:30:38;6.00;;;3.33;;
73779;SDS011;62093;37.614;15.072;2024-01-30T04:33:04;6.05;;;3.10;;
73779;SDS011;62093;37.614;15.072;2024-01-30T04:35:30;6.10;;;2.97;;
73779;SDS011;62093;37.614;15.072;2024-01-30T04:37:56;5.95;;;3.00;;
73779;SDS011;62093;37.614;15.072;2024-01-30T04:40:22;5.47;;;2.90;;
73779;SDS011;62093;37.614;15.072;2024-01-30T04:42:48;5.63;;;3.15;;
73779;SDS011;62093;37.614;15.072;2024-01-30T04:45:14;5.22;;;2.83;;
73779;SDS011;62093;37.614;15.072;2024-01-30T04:47:40;5.78;;;3.08;;
73779;SDS011;62093;37.614;15.072;2024-01-30T04:50:06;5.50;;;3.17;;
73779;SDS011;62093;37.614;15.072;2024-01-30T04:52:34;5.50;;;3.08;;
73779;SDS011;62093;37.614;15.072;2024-01-30T04:55:00;5.50;;;3.00;;
73779;SDS011;62093;37.614;15.072;2024-01-30T04:57:26;5.22;;;2.88;;
73779;SDS011;62093;37.614;15.072;2024-01-30T04:59:52;6.13;;;3.20;;
73779;SDS011;62093;37.614;15.072;2024-01-30T05:02:18;6.00;;;3.05;;
73779;SDS011;62093;37.614;15.072;2024-01-30T05:04:43;6.50;;;3.30;;
73779;SDS011;62093;37.614;15.072;2024-01-30T05:07:09;5.73;;;2.90;;
73779;SDS011;62093;37.614;15.072;2024-01-30T05:09:35;6.13;;;3.50;;
73779;SDS011;62093;37.614;15.072;2024-01-30T05:12:01;6.07;;;3.20;;
73779;SDS011;62093;37.614;15.072;2024-01-30T05:14:27;6.20;;;3.30;;
73779;SDS011;62093;37.614;15.072;2024-01-30T05:16:53;5.22;;;3.10;;
73779;SDS011;62093;37.614;15.072;2024-01-30T05:19:19;6.25;;;3.38;;
73779;SDS011;62093;37.614;15.072;2024-01-30T05:21:45;6.32;;;3.13;;
73779;SDS011;62093;37.614;15.072;2024-01-30T05:24:11;5.80;;;3.20;;
73779;SDS011;62093;37.614;15.072;2024-01-30T05:26:38;6.07;;;3.10;;
73779;SDS011;62093;37.614;15.072;2024-01-30T05:29:04;6.07;;;3.47;;
73779;SDS011;62093;37.614;15.072;2024-01-30T05:31:30;5.50;;;2.75;;
73779;SDS011;62093;37.614;15.072;2024-01-30T05:33:56;5.83;;;3.10;;
73779;SDS011;62093;37.614;15.072;2024-01-30T05:36:22;5.38;;;3.00;;
73779;SDS011;62093;37.614;15.072;2024-01-30T05:38:48;5.85;;;3.03;;
73779;SDS011;62093;37.614;15.072;2024-01-30T05:41:14;5.60;;;3.10;;
73779;SDS011;62093;37.614;15.072;2024-01-30T05:43:40;5.38;;;2.95;;
73779;SDS011;62093;37.614;15.072;2024-01-30T05:46:09;5.43;;;2.83;;
73779;SDS011;62093;37.614;15.072;2024-01-30T05:48:34;5.47;;;3.10;;
73779;SDS011;62093;37.614;15.072;2024-01-30T05:51:01;5.50;;;2.70;;
73779;SDS011;62093;37.614;15.072;2024-01-30T05:53:28;5.57;;;3.03;;
73779;SDS011;62093;37.614;15.072;2024-01-30T05:55:54;5.88;;;3.42;;
73779;SDS011;62093;37.614;15.072;2024-01-30T05:58:20;5.85;;;3.00;;
73779;SDS011;62093;37.614;15.072;2024-01-30T06:00:47;5.73;;;3.27;;
73779;SDS011;62093;37.614;15.072;2024-01-30T06:03:13;5.70;;;3.20;;
73779;SDS011;62093;37.614;15.072;2024-01-30T06:05:38;6.13;;;3.30;;
73779;SDS011;62093;37.614;15.072;2024-01-30T06:08:04;5.15;;;2.50;;
73779;SDS011;62093;37.614;15.072;2024-01-30T06:10:31;6.17;;;3.00;;
73779;SDS011;62093;37.614;15.072;2024-01-30T06:12:56;5.78;;;2.90;;
73779;SDS011;62093;37.614;15.072;2024-01-30T06:15:22;5.97;;;3.17;;
73779;SDS011;62093;37.614;15.072;2024-01-30T06:17:48;6.07;;;3.33;;
73779;SDS011;62093;37.614;15.072;2024-01-30T06:20:14;5.90;;;3.10;;
73779;SDS011;62093;37.614;15.072;2024-01-30T06:22:40;5.80;;;3.38;;
73779;SDS011;62093;37.614;15.072;2024-01-30T06:25:06;5.30;;;2.83;;
73779;SDS011;62093;37.614;15.072;2024-01-30T06:27:32;5.97;;;2.77;;
73779;SDS011;62093;37.614;15.072;2024-01-30T06:29:58;5.75;;;2.80;;
73779;SDS011;62093;37.614;15.072;2024-01-30T06:32:24;6.03;;;3.17;;
73779;SDS011;62093;37.614;15.072;2024-01-30T06:34:50;5.53;;;3.00;;
73779;SDS011;62093;37.614;15.072;2024-01-30T06:37:16;5.13;;;2.87;;
73779;SDS011;62093;37.614;15.072;2024-01-30T06:39:42;5.57;;;3.17;;
73779;SDS011;62093;37.614;15.072;2024-01-30T06:42:09;5.60;;;2.75;;
73779;SDS011;62093;37.614;15.072;2024-01-30T06:44:35;6.13;;;3.03;;
73779;SDS011;62093;37.614;15.072;2024-01-30T06:47:01;5.43;;;3.00;;
73779;SDS011;62093;37.614;15.072;2024-01-30T06:49:27;5.88;;;3.33;;
73779;SDS011;62093;37.614;15.072;2024-01-30T06:51:52;5.70;;;2.90;;
73779;SDS011;62093;37.614;15.072;2024-01-30T06:54:18;6.10;;;3.03;;
73779;SDS011;62093;37.614;15.072;2024-01-30T06:56:44;6.20;;;3.20;;
73779;SDS011;62093;37.614;15.072;2024-01-30T06:59:10;5.72;;;2.70;;
73779;SDS011;62093;37.614;15.072;2024-01-30T07:01:36;6.37;;;3.50;;
73779;SDS011;62093;37.614;15.072;2024-01-30T07:04:02;5.60;;;3.00;;
73779;SDS011;62093;37.614;15.072;2024-01-30T07:06:28;5.45;;;3.05;;
73779;SDS011;62093;37.614;15.072;2024-01-30T07:08:54;6.37;;;3.23;;
73779;SDS011;62093;37.614;15.072;2024-01-30T07:11:20;4.90;;;2.67;;
73779;SDS011;62093;37.614;15.072;2024-01-30T07:13:47;5.50;;;2.88;;
73779;SDS011;62093;37.614;15.072;2024-01-30T07:16:14;5.63;;;2.78;;
73779;SDS011;62093;37.614;15.072;2024-01-30T07:18:40;5.50;;;2.67;;
73779;SDS011;62093;37.614;15.072;2024-01-30T07:21:06;5.30;;;2.90;;
73779;SDS011;62093;37.614;15.072;2024-01-30T07:23:32;6.38;;;3.22;;
73779;SDS011;62093;37.614;15.072;2024-01-30T07:26:00;5.50;;;2.90;;
73779;SDS011;62093;37.614;15.072;2024-01-30T07:28:27;5.07;;;2.80;;
73779;SDS011;62093;37.614;15.072;2024-01-30T07:30:52;5.27;;;2.90;;
73779;SDS011;62093;37.614;15.072;2024-01-30T07:33:18;5.38;;;3.00;;
73779;SDS011;62093;37.614;15.072;2024-01-30T07:35:45;6.32;;;2.80;;
73779;SDS011;62093;37.614;15.072;2024-01-30T07:38:11;5.70;;;3.05;;
73779;SDS011;62093;37.614;15.072;2024-01-30T07:40:37;6.07;;;3.13;;
73779;SDS011;62093;37.614;15.072;2024-01-30T07:43:03;5.65;;;2.95;;
73779;SDS011;62093;37.614;15.072;2024-01-30T07:45:29;4.72;;;2.65;;
73779;SDS011;62093;37.614;15.072;2024-01-30T07:47:58;5.43;;;2.80;;
73779;SDS011;62093;37.614;15.072;2024-01-30T07:50:25;5.65;;;2.75;;
73779;SDS011;62093;37.614;15.072;2024-01-30T07:52:51;5.90;;;2.97;;
73779;SDS011;62093;37.614;15.072;2024-01-30T07:55:20;5.97;;;2.90;;
73779;SDS011;62093;37.614;15.072;2024-01-30T07:57:52;5.30;;;2.65;;
73779;SDS011;62093;37.614;15.072;2024-01-30T08:00:19;5.07;;;2.80;;
73779;SDS011;62093;37.614;15.072;2024-01-30T08:02:45;5.97;;;2.80;;
73779;SDS011;62093;37.614;15.072;2024-01-30T08:05:11;5.50;;;2.90;;
73779;SDS011;62093;37.614;15.072;2024-01-30T08:07:37;4.93;;;2.65;;
73779;SDS011;62093;37.614;15.072;2024-01-30T08:10:03;5.15;;;2.95;;
73779;SDS011;62093;37.614;15.072;2024-01-30T08:12:29;5.00;;;2.70;;
73779;SDS011;62093;37.614;15.072;2024-01-30T08:14:55;6.35;;;2.95;;
73779;SDS011;62093;37.614;15.072;2024-01-30T08:17:21;5.15;;;2.83;;
73779;SDS011;62093;37.614;15.072;2024-01-30T08:19:47;5.43;;;3.10;;
73779;SDS011;62093;37.614;15.072;2024-01-30T08:22:13;5.60;;;2.63;;
73779;SDS011;62093;37.614;15.072;2024-01-30T08:24:39;4.95;;;2.33;;
73779;SDS011;62093;37.614;15.072;2024-01-30T08:27:06;6.88;;;2.65;;
73779;SDS011;62093;37.614;15.072;2024-01-30T08:29:35;5.37;;;2.97;;
73779;SDS011;62093;37.614;15.072;2024-01-30T08:32:01;6.18;;;2.97;;
73779;SDS011;62093;37.614;15.072;2024-01-30T08:34:28;5.53;;;2.60;;
73779;SDS011;62093;37.614;15.072;2024-01-30T08:36:54;5.95;;;3.20;;
73779;SDS011;62093;37.614;15.072;2024-01-30T08:39:19;5.10;;;2.83;;
73779;SDS011;62093;37.614;15.072;2024-01-30T08:41:45;5.07;;;2.60;;
73779;SDS011;62093;37.614;15.072;2024-01-30T08:44:11;5.57;;;3.17;;
73779;SDS011;62093;37.614;15.072;2024-01-30T08:46:37;6.43;;;3.03;;
73779;SDS011;62093;37.614;15.072;2024-01-30T08:49:03;4.97;;;2.85;;
73779;SDS011;62093;37.614;15.072;2024-01-30T08:51:31;5.95;;;2.80;;
73779;SDS011;62093;37.614;15.072;2024-01-30T08:53:57;5.10;;;2.80;;
73779;SDS011;62093;37.614;15.072;2024-01-30T08:56:23;4.80;;;2.70;;
73779;SDS011;62093;37.614;15.072;2024-01-30T08:58:49;5.95;;;2.75;;
73779;SDS011;62093;37.614;15.072;2024-01-30T09:01:15;5.03;;;2.88;;
73779;SDS011;62093;37.614;15.072;2024-01-30T09:03:41;5.87;;;2.93;;
73779;SDS011;62093;37.614;15.072;2024-01-30T09:06:12;5.38;;;2.75;;
73779;SDS011;62093;37.614;15.072;2024-01-30T09:08:38;5.13;;;2.55;;
73779;SDS011;62093;37.614;15.072;2024-01-30T09:11:14;4.95;;;2.63;;
73779;SDS011;62093;37.614;15.072;2024-01-30T09:13:40;5.25;;;2.65;;
73779;SDS011;62093;37.614;15.072;2024-01-30T09:16:06;4.70;;;2.60;;
73779;SDS011;62093;37.614;15.072;2024-01-30T09:18:33;5.80;;;2.97;;
73779;SDS011;62093;37.614;15.072;2024-01-30T09:20:59;5.22;;;2.90;;
73779;SDS011;62093;37.614;15.072;2024-01-30T09:23:26;4.80;;;2.67;;
73779;SDS011;62093;37.614;15.072;2024-01-30T09:25:55;5.75;;;2.72;;
73779;SDS011;62093;37.614;15.072;2024-01-30T09:28:21;6.10;;;2.93;;
73779;SDS011;62093;37.614;15.072;2024-01-30T09:30:47;5.95;;;2.85;;
73779;SDS011;62093;37.614;15.072;2024-01-30T09:33:13;6.53;;;3.20;;
73779;SDS011;62093;37.614;15.072;2024-01-30T09:35:39;4.80;;;2.40;;
73779;SDS011;62093;37.614;15.072;2024-01-30T09:38:05;5.93;;;3.23;;
73779;SDS011;62093;37.614;15.072;2024-01-30T09:40:31;5.57;;;2.70;;
73779;SDS011;62093;37.614;15.072;2024-01-30T09:42:57;5.18;;;2.70;;
73779;SDS011;62093;37.614;15.072;2024-01-30T09:45:25;5.30;;;2.60;;
73779;SDS011;62093;37.614;15.072;2024-01-30T09:47:52;5.65;;;2.83;;
73779;SDS011;62093;37.614;15.072;2024-01-30T09:50:18;6.33;;;3.03;;
73779;SDS011;62093;37.614;15.072;2024-01-30T09:52:45;4.95;;;2.60;;
73779;SDS011;62093;37.614;15.072;2024-01-30T09:55:12;5.40;;;2.70;;
73779;SDS011;62093;37.614;15.072;2024-01-30T09:57:39;5.30;;;2.60;;
73779;SDS011;62093;37.614;15.072;2024-01-30T10:00:05;5.32;;;2.63;;
73779;SDS011;62093;37.614;15.072;2024-01-30T10:02:38;5.00;;;2.50;;
73779;SDS011;62093;37.614;15.072;2024-01-30T10:05:05;5.38;;;2.75;;
73779;SDS011;62093;37.614;15.072;2024-01-30T10:07:31;5.00;;;2.53;;
73779;SDS011;62093;37.614;15.072;2024-01-30T10:09:57;5.35;;;2.75;;
73779;SDS011;62093;37.614;15.072;2024-01-30T10:12:25;5.03;;;2.70;;
73779;SDS011;62093;37.614;15.072;2024-01-30T10:14:51;5.17;;;2.70;;
73779;SDS011;62093;37.614;15.072;2024-01-30T10:17:17;5.38;;;2.75;;
73779;SDS011;62093;37.614;15.072;2024-01-30T10:19:46;5.28;;;2.63;;
73779;SDS011;62093;37.614;15.072;2024-01-30T10:22:12;5.40;;;2.45;;
73779;SDS011;62093;37.614;15.072;2024-01-30T10:24:38;5.17;;;2.50;;
73779;SDS011;62093;37.614;15.072;2024-01-30T10:27:05;4.90;;;2.50;;
73779;SDS011;62093;37.614;15.072;2024-01-30T10:29:31;4.68;;;2.40;;
73779;SDS011;62093;37.614;15.072;2024-01-30T10:32:04;5.18;;;2.80;;
73779;SDS011;62093;37.614;15.072;2024-01-30T10:34:31;5.00;;;2.55;;
73779;SDS011;62093;37.614;15.072;2024-01-30T10:37:06;5.00;;;2.60;;
73779;SDS011;62093;37.614;15.072;2024-01-30T10:39:38;5.32;;;2.70;;
73779;SDS011;62093;37.614;15.072;2024-01-30T10:42:06;5.32;;;2.83;;
73779;SDS011;62093;37.614;15.072;2024-01-30T10:44:37;4.80;;;2.70;;
73779;SDS011;62093;37.614;15.072;2024-01-30T10:47:11;4.85;;;2.60;;
73779;SDS011;62093;37.614;15.072;2024-01-30T10:49:39;5.07;;;2.63;;
73779;SDS011;62093;37.614;15.072;2024-01-30T10:52:08;4.80;;;2.28;;
73779;SDS011;62093;37.614;15.072;2024-01-30T10:54:36;5.15;;;2.42;;
73779;SDS011;62093;37.614;15.072;2024-01-30T10:57:03;4.97;;;2.53;;
73779;SDS011;62093;37.614;15.072;2024-01-30T10:59:30;5.82;;;2.70;;
73779;SDS011;62093;37.614;15.072;2024-01-30T11:01:57;5.07;;;2.77;;
73779;SDS011;62093;37.614;15.072;2024-01-30T11:04:24;5.00;;;2.60;;
73779;SDS011;62093;37.614;15.072;2024-01-30T11:06:51;4.82;;;2.60;;
73779;SDS011;62093;37.614;15.072;2024-01-30T11:09:17;5.25;;;2.60;;
73779;SDS011;62093;37.614;15.072;2024-01-30T11:11:56;5.40;;;2.88;;
73779;SDS011;62093;37.614;15.072;2024-01-30T11:14:27;5.60;;;2.90;;
73779;SDS011;62093;37.614;15.072;2024-01-30T11:16:57;5.35;;;2.40;;
73779;SDS011;62093;37.614;15.072;2024-01-30T11:19:24;5.82;;;2.50;;
73779;SDS011;62093;37.614;15.072;2024-01-30T11:21:56;5.13;;;2.58;;
73779;SDS011;62093;37.614;15.072;2024-01-30T11:24:23;4.68;;;2.50;;
73779;SDS011;62093;37.614;15.072;2024-01-30T11:26:50;5.10;;;2.70;;
73779;SDS011;62093;37.614;15.072;2024-01-30T11:29:25;5.45;;;2.38;;
73779;SDS011;62093;37.614;15.072;2024-01-30T11:31:53;4.70;;;2.40;;
73779;SDS011;62093;37.614;15.072;2024-01-30T11:34:22;5.60;;;2.30;;
73779;SDS011;62093;37.614;15.072;2024-01-30T11:36:52;4.55;;;2.25;;
73779;SDS011;62093;37.614;15.072;2024-01-30T11:39:24;4.90;;;2.40;;
73779;SDS011;62093;37.614;15.072;2024-01-30T11:41:52;5.68;;;2.50;;
73779;SDS011;62093;37.614;15.072;2024-01-30T11:44:19;4.50;;;2.55;;
73779;SDS011;62093;37.614;15.072;2024-01-30T11:46:47;5.00;;;2.60;;
73779;SDS011;62093;37.614;15.072;2024-01-30T11:49:13;5.03;;;2.38;;
73779;SDS011;62093;37.614;15.072;2024-01-30T11:51:40;4.60;;;2.30;;
73779;SDS011;62093;37.614;15.072;2024-01-30T11:54:07;5.00;;;2.30;;
73779;SDS011;62093;37.614;15.072;2024-01-30T11:56:33;4.60;;;2.30;;
73779;SDS011;62093;37.614;15.072;2024-01-30T11:58:59;5.03;;;2.70;;
73779;SDS011;62093;37.614;15.072;2024-01-30T12:01:28;4.82;;;2.47;;
73779;SDS011;62093;37.614;15.072;2024-01-30T12:03:54;4.70;;;2.33;;
73779;SDS011;62093;37.614;15.072;2024-01-30T12:06:22;4.43;;;2.13;;
73779;SDS011;62093;37.614;15.072;2024-01-30T12:08:58;4.70;;;2.50;;
73779;SDS011;62093;37.614;15.072;2024-01-30T12:11:30;4.60;;;2.50;;
73779;SDS011;62093;37.614;15.072;2024-01-30T12:13:56;4.80;;;2.60;;
73779;SDS011;62093;37.614;15.072;2024-01-30T12:16:22;4.93;;;2.40;;
73779;SDS011;62093;37.614;15.072;2024-01-30T12:18:48;4.95;;;2.35;;
73779;SDS011;62093;37.614;15.072;2024-01-30T12:21:17;4.93;;;2.53;;
73779;SDS011;62093;37.614;15.072;2024-01-30T12:23:44;5.30;;;2.20;;
73779;SDS011;62093;37.614;15.072;2024-01-30T12:26:10;4.90;;;2.38;;
73779;SDS011;62093;37.614;15.072;2024-01-30T12:28:36;4.33;;;2.20;;
73779;SDS011;62093;37.614;15.072;2024-01-30T12:31:02;4.65;;;2.20;;
73779;SDS011;62093;37.614;15.072;2024-01-30T12:33:29;4.60;;;2.30;;
73779;SDS011;62093;37.614;15.072;2024-01-30T12:35:56;5.35;;;2.83;;
73779;SDS011;62093;37.614;15.072;2024-01-30T12:38:25;4.90;;;2.50;;
73779;SDS011;62093;37.614;15.072;2024-01-30T12:40:54;5.00;;;2.70;;
73779;SDS011;62093;37.614;15.072;2024-01-30T12:43:21;4.38;;;2.00;;
73779;SDS011;62093;37.614;15.072;2024-01-30T12:45:47;5.18;;;2.40;;
73779;SDS011;62093;37.614;15.072;2024-01-30T12:48:14;4.88;;;2.53;;
73779;SDS011;62093;37.614;15.072;2024-01-30T12:50:41;5.78;;;2.67;;
73779;SDS011;62093;37.614;15.072;2024-01-30T12:53:07;4.90;;;2.30;;
73779;SDS011;62093;37.614;15.072;2024-01-30T12:55:34;4.40;;;2.15;;
73779;SDS011;62093;37.614;15.072;2024-01-30T12:58:00;5.28;;;2.30;;
73779;SDS011;62093;37.614;15.072;2024-01-30T13:00:27;4.65;;;2.40;;
73779;SDS011;62093;37.614;15.072;2024-01-30T13:02:53;4.43;;;2.40;;
73779;SDS011;62093;37.614;15.072;2024-01-30T13:05:19;5.10;;;2.35;;
73779;SDS011;62093;37.614;15.072;2024-01-30T13:07:45;4.85;;;2.55;;
73779;SDS011;62093;37.614;15.072;2024-01-30T13:10:11;5.13;;;2.30;;
73779;SDS011;62093;37.614;15.072;2024-01-30T13:12:37;4.40;;;2.30;;
73779;SDS011;62093;37.614;15.072;2024-01-30T13:15:04;4.72;;;2.60;;
73779;SDS011;62093;37.614;15.072;2024-01-30T13:17:31;4.78;;;2.33;;
73779;SDS011;62093;37.614;15.072;2024-01-30T13:19:57;5.03;;;2.30;;
73779;SDS011;62093;37.614;15.072;2024-01-30T13:22:23;5.45;;;2.33;;
73779;SDS011;62093;37.614;15.072;2024-01-30T13:24:50;4.87;;;2.40;;
73779;SDS011;62093;37.614;15.072;2024-01-30T13:27:16;4.72;;;2.40;;
73779;SDS011;62093;37.614;15.072;2024-01-30T13:29:42;5.03;;;2.30;;
73779;SDS011;62093;37.614;15.072;2024-01-30T13:32:08;4.43;;;2.25;;
73779;SDS011;62093;37.614;15.072;2024-01-30T13:34:34;4.37;;;2.30;;
73779;SDS011;62093;37.614;15.072;2024-01-30T13:37:00;4.47;;;2.38;;
73779;SDS011;62093;37.614;15.072;2024-01-30T13:39:26;5.00;;;2.53;;
73779;SDS011;62093;37.614;15.072;2024-01-30T13:41:52;5.28;;;2.40;;
73779;SDS011;62093;37.614;15.072;2024-01-30T13:44:18;4.53;;;2.40;;
73779;SDS011;62093;37.614;15.072;2024-01-30T13:46:44;4.30;;;2.10;;
73779;SDS011;62093;37.614;15.072;2024-01-30T13:49:11;4.93;;;2.50;;
73779;SDS011;62093;37.614;15.072;2024-01-30T13:51:37;4.38;;;2.10;;
73779;SDS011;62093;37.614;15.072;2024-01-30T13:54:03;4.45;;;2.30;;
73779;SDS011;62093;37.614;15.072;2024-01-30T13:56:29;4.63;;;2.40;;
73779;SDS011;62093;37.614;15.072;2024-01-30T13:58:56;5.57;;;2.40;;
73779;SDS011;62093;37.614;15.072;2024-01-30T14:01:22;4.57;;;2.33;;
73779;SDS011;62093;37.614;15.072;2024-01-30T14:03:49;4.45;;;2.28;;
73779;SDS011;62093;37.614;15.072;2024-01-30T14:06:15;5.27;;;2.60;;
73779;SDS011;62093;37.614;15.072;2024-01-30T14:08:41;4.50;;;2.03;;
73779;SDS011;62093;37.614;15.072;2024-01-30T14:11:07;5.03;;;2.63;;
73779;SDS011;62093;37.614;15.072;2024-01-30T14:13:33;4.65;;;2.58;;
73779;SDS011;62093;37.614;15.072;2024-01-30T14:16:00;5.20;;;2.40;;
73779;SDS011;62093;37.614;15.072;2024-01-30T14:18:26;4.63;;;2.05;;
73779;SDS011;62093;37.614;15.072;2024-01-30T14:20:52;5.03;;;2.47;;
73779;SDS011;62093;37.614;15.072;2024-01-30T14:23:20;4.45;;;2.25;;
73779;SDS011;62093;37.614;15.072;2024-01-30T14:25:47;4.47;;;2.30;;
73779;SDS011;62093;37.614;15.072;2024-01-30T14:28:13;4.68;;;2.58;;
73779;SDS011;62093;37.614;15.072;2024-01-30T14:30:39;4.40;;;2.20;;